Time;durP1;ratioP1;P1;durP2;ratioP2;P2;SDS_P1;SDS_P2;PMS_P1;PMS_P2;Temp;Humidity;BMP_temperature;BMP_pressure;BME280_temperature;BME280_humidity;BME280_pressure;Samples;Min_cycle;Max_cycle;Signal;HPM_P1;HPM_P2
2023/12/01 00:00:55;;;;;;;47.58;18.00;;;;;;;-1.07;100.00;96862.69;2582277;28;20523;-87
2023/12/01 00:02:31;;;;;;;39.22;15.98;;;;;;;-1.23;100.00;96854.22;2587163;28;20065;-87
2023/12/01 00:03:48;;;;;;;48.03;18.92;;;;;;;-1.08;100.00;96845.59;2584369;28;20050;-88
2023/12/01 00:05:04;;;;;;;49.10;18.50;;;;;;;-0.98;100.00;96845.50;2584897;28;20460;-87
2023/12/01 00:06:20;;;;;;;54.22;18.27;;;;;;;-0.98;100.00;96841.22;2586038;28;20043;-87
2023/12/01 00:07:35;;;;;;;41.17;15.32;;;;;;;-1.11;100.00;96844.75;2584352;28;20437;-87
2023/12/01 00:08:51;;;;;;;50.75;18.92;;;;;;;-0.97;100.00;96842.91;2584324;28;20402;-87
2023/12/01 00:10:11;;;;;;;45.95;17.25;;;;;;;-0.98;100.00;96836.09;2584517;28;20046;-87
2023/12/01 00:11:26;;;;;;;44.55;16.98;;;;;;;-0.94;100.00;96842.06;2586345;28;20409;-87
2023/12/01 00:12:42;;;;;;;47.17;19.48;;;;;;;-0.78;100.00;96843.63;2585603;28;20084;-87
2023/12/01 00:13:58;;;;;;;60.20;19.55;;;;;;;-0.80;100.00;96839.34;2585545;28;20425;-87
2023/12/01 00:15:13;;;;;;;50.42;18.15;;;;;;;-0.76;100.00;96841.88;2585200;28;20054;-86
2023/12/01 00:16:29;;;;;;;54.70;20.15;;;;;;;-0.72;100.00;96848.69;2584278;28;20050;-87
2023/12/01 00:17:45;;;;;;;57.88;20.83;;;;;;;-0.66;100.00;96857.25;2586587;28;20493;-88
2023/12/01 00:19:00;;;;;;;51.80;19.10;;;;;;;-0.67;100.00;96858.09;2586020;28;20046;-86
2023/12/01 00:20:16;;;;;;;49.53;18.58;;;;;;;-0.88;100.00;96859.97;2585093;28;20077;-87
2023/12/01 00:21:32;;;;;;;48.60;18.65;;;;;;;-0.74;100.00;96853.00;2584678;28;20654;-87
2023/12/01 00:22:47;;;;;;;51.53;18.33;;;;;;;-0.74;100.00;96854.75;2585128;28;20052;-87
2023/12/01 00:24:03;;;;;;;54.92;19.85;;;;;;;-0.64;100.00;96866.63;2584469;28;20697;-87
2023/12/01 00:25:19;;;;;;;53.33;18.33;;;;;;;-0.53;100.00;96875.97;2584730;28;20046;-86
2023/12/01 00:26:34;;;;;;;57.95;19.55;;;;;;;-0.55;100.00;96887.97;2586218;28;20050;-87
2023/12/01 00:27:50;;;;;;;63.10;21.65;;;;;;;-0.64;100.00;96892.31;2586076;28;20073;-87
2023/12/01 00:29:06;;;;;;;53.85;19.30;;;;;;;-0.62;100.00;96894.91;2584517;28;20513;-87
2023/12/01 00:30:23;;;;;;;45.33;16.90;;;;;;;-0.72;100.00;96887.25;2583571;28;20046;-88
2023/12/01 00:31:39;;;;;;;56.92;21.58;;;;;;;-0.41;100.00;96898.16;2586031;28;20101;-88
2023/12/01 00:32:55;;;;;;;56.20;19.25;;;;;;;-0.55;100.00;96901.69;2586486;28;20041;-88
2023/12/01 00:34:11;;;;;;;54.03;19.08;;;;;;;-0.40;100.00;96905.00;2583977;28;20132;-87
2023/12/01 00:35:27;;;;;;;53.17;19.80;;;;;;;-0.32;100.00;96900.63;2585056;28;20050;-87
2023/12/01 00:36:42;;;;;;;53.17;18.55;;;;;;;-0.52;100.00;96891.38;2584157;28;20050;-87
2023/12/01 00:37:58;;;;;;;56.70;19.42;;;;;;;-0.48;100.00;96887.91;2585368;28;20050;-86
2023/12/01 00:39:13;;;;;;;59.95;19.55;;;;;;;-0.44;100.00;96884.44;2585112;28;20050;-87
2023/12/01 00:40:29;;;;;;;50.35;18.27;;;;;;;-0.38;100.00;96883.53;2584262;28;20501;-87
2023/12/01 00:41:45;;;;;;;53.30;19.13;;;;;;;-0.50;100.00;96875.94;2572435;28;20050;-87
2023/12/01 00:43:01;;;;;;;61.35;18.67;;;;;;;-0.39;100.00;96866.41;2576896;28;20042;-86
2023/12/01 00:44:16;;;;;;;59.55;20.00;;;;;;;-0.73;100.00;96867.56;2573939;28;20493;-87
2023/12/01 00:45:32;;;;;;;53.38;19.27;;;;;;;-0.67;100.00;96871.78;2568787;28;20043;-87
2023/12/01 00:46:48;;;;;;;55.53;19.33;;;;;;;-0.84;100.00;96882.19;2568528;28;20077;-87
2023/12/01 00:48:03;;;;;;;57.97;18.27;;;;;;;-0.83;100.00;96881.38;2576939;28;20077;-87
2023/12/01 00:49:19;;;;;;;51.78;18.38;;;;;;;-0.61;100.00;96882.03;2585396;28;20042;-87
2023/12/01 00:50:34;;;;;;;53.40;17.52;;;;;;;-0.68;100.00;96884.69;2585048;28;20043;-88
2023/12/01 00:51:50;;;;;;;45.22;16.92;;;;;;;-0.55;100.00;96883.72;2585196;28;20144;-87
2023/12/01 00:53:06;;;;;;;53.63;19.30;;;;;;;-0.41;100.00;96888.72;2584398;28;20540;-87
2023/12/01 00:54:21;;;;;;;50.17;19.40;;;;;;;-0.27;100.00;96878.31;2586708;28;20100;-87
2023/12/01 00:55:37;;;;;;;56.83;17.17;;;;;;;-0.33;100.00;96874.06;2584392;28;20054;-87
2023/12/01 00:56:53;;;;;;;49.72;17.35;;;;;;;-0.54;100.00;96862.28;2584314;28;20097;-87
2023/12/01 00:58:08;;;;;;;47.58;16.75;;;;;;;-0.60;100.00;96867.44;2583354;28;20117;-87
2023/12/01 00:59:24;;;;;;;56.22;20.33;;;;;;;-0.38;100.00;96883.53;2585313;28;20576;-87
2023/12/01 01:00:40;;;;;;;50.08;17.13;;;;;;;-0.50;100.00;96887.06;2586258;28;20054;-87
2023/12/01 01:01:55;;;;;;;61.17;19.48;;;;;;;-0.22;100.00;96884.25;2583902;28;20057;-89
2023/12/01 01:03:11;;;;;;;51.65;19.23;;;;;;;-0.15;100.00;96872.16;2583568;28;20050;-87
2023/12/01 01:04:27;;;;;;;52.70;18.15;;;;;;;-0.16;100.00;96876.44;2586257;28;20660;-87
2023/12/01 01:05:42;;;;;;;49.38;16.95;;;;;;;-0.44;100.00;96883.59;2583788;28;20066;-87
2023/12/01 01:06:58;;;;;;;51.78;17.85;;;;;;;-0.32;100.00;96887.75;2583193;28;20133;-87
2023/12/01 01:08:14;;;;;;;51.00;17.30;;;;;;;-0.24;100.00;96890.25;2584294;28;20165;-87
2023/12/01 01:09:29;;;;;;;49.33;17.05;;;;;;;-0.22;100.00;96894.53;2585541;28;20050;-87
2023/12/01 01:10:45;;;;;;;50.53;18.90;;;;;;;-0.27;100.00;96891.16;2584586;28;20046;-87
2023/12/01 01:12:01;;;;;;;49.42;17.13;;;;;;;-0.24;100.00;96900.53;2585702;28;20054;-87
2023/12/01 01:13:17;;;;;;;46.55;16.33;;;;;;;-0.25;100.00;96902.28;2582667;28;20047;-87
2023/12/01 01:14:32;;;;;;;43.95;17.45;;;;;;;-0.17;100.00;96897.91;2585880;28;20057;-86
2023/12/01 01:15:48;;;;;;;49.25;17.23;;;;;;;-0.35;100.00;96893.81;2585302;28;20043;-87
2023/12/01 01:17:04;;;;;;;48.70;16.80;;;;;;;-0.30;100.00;96894.59;2583511;28;20065;-87
2023/12/01 01:18:20;;;;;;;44.20;16.05;;;;;;;-0.36;100.00;96886.94;2584935;28;20050;-87
2023/12/01 01:19:36;;;;;;;45.53;16.15;;;;;;;-0.45;100.00;96882.72;2585111;28;20074;-87
2023/12/01 01:20:51;;;;;;;52.00;16.83;;;;;;;-0.47;100.00;96892.19;2583342;28;20050;-87
2023/12/01 01:22:07;;;;;;;46.75;15.30;;;;;;;-0.81;100.00;96889.91;2585002;28;20054;-87
2023/12/01 01:23:22;;;;;;;50.95;18.02;;;;;;;-0.64;100.00;96891.50;2583601;28;20137;-87
2023/12/01 01:24:38;;;;;;;50.95;16.65;;;;;;;-0.44;100.00;96879.28;2583553;28;20418;-87
2023/12/01 01:25:53;;;;;;;55.42;16.77;;;;;;;-0.53;100.00;96875.97;2585107;28;20104;-87
2023/12/01 01:27:09;;;;;;;49.00;17.42;;;;;;;-0.36;100.00;96878.38;2583591;28;20125;-87
2023/12/01 01:28:25;;;;;;;51.45;16.25;;;;;;;-0.34;100.00;96880.09;2586371;28;20183;-87
2023/12/01 01:29:40;;;;;;;52.58;17.40;;;;;;;-0.26;100.00;96892.88;2586604;28;20117;-87
2023/12/01 01:30:57;;;;;;;51.58;17.45;;;;;;;-0.08;100.00;96896.94;2578999;28;20050;-87
2023/12/01 01:32:13;;;;;;;42.45;16.70;;;;;;;-0.02;100.00;96893.47;2580682;28;20102;-87
2023/12/01 01:33:30;;;;;;;54.30;18.00;;;;;;;-0.09;100.00;96904.69;2585364;28;20493;-88
2023/12/01 01:34:46;;;;;;;52.47;16.70;;;;;;;-0.05;100.00;96906.38;2584265;28;20084;-87
2023/12/01 01:36:02;;;;;;;49.22;17.15;;;;;;;-0.14;100.00;96899.59;2585223;28;20058;-87
2023/12/01 01:37:17;;;;;;;45.63;16.25;;;;;;;-0.05;100.00;96902.09;2583826;28;20046;-87
2023/12/01 01:38:33;;;;;;;44.83;15.70;;;;;;;-0.25;100.00;96894.56;2583554;28;20052;-87
2023/12/01 01:39:48;;;;;;;49.53;17.38;;;;;;;-0.04;100.00;96895.19;2585236;28;20400;-87
2023/12/01 01:41:04;;;;;;;46.08;17.13;;;;;;;0.06;100.00;96888.22;2584303;28;20057;-87
2023/12/01 01:42:20;;;;;;;48.72;17.52;;;;;;;0.11;100.00;96897.59;2583404;28;20093;-88
2023/12/01 01:43:36;;;;;;;50.65;16.00;;;;;;;0.08;100.00;96900.22;2585233;28;20050;-87
2023/12/01 01:44:52;;;;;;;48.20;17.35;;;;;;;0.18;100.00;96892.41;2586139;28;20064;-88
2023/12/01 01:46:11;;;;;;;48.28;16.85;;;;;;;0.17;100.00;96888.13;2583695;28;20478;-87
2023/12/01 01:47:27;;;;;;;49.35;16.65;;;;;;;0.24;100.00;96882.03;2584667;28;20092;-87
2023/12/01 01:48:43;;;;;;;45.28;16.48;;;;;;;-0.01;100.00;96878.00;2585028;28;20045;-87
2023/12/01 01:50:00;;;;;;;46.05;17.05;;;;;;;-0.28;100.00;96879.16;2583940;28;20478;-87
2023/12/01 01:51:16;;;;;;;47.78;16.23;;;;;;;-0.06;100.00;96878.94;2585051;28;20048;-87
2023/12/01 01:52:35;;;;;;;48.67;16.35;;;;;;;-0.22;100.00;96876.53;2584662;28;20348;-86
2023/12/01 01:53:51;;;;;;;49.90;17.08;;;;;;;-0.08;100.00;96875.53;2584966;28;20100;-87
2023/12/01 01:55:08;;;;;;;53.42;17.83;;;;;;;0.05;100.00;96881.38;2582894;28;20196;-87
2023/12/01 01:56:24;;;;;;;52.03;16.98;;;;;;;0.13;100.00;96885.56;2585244;28;20050;-87
2023/12/01 01:57:44;;;;;;;47.88;15.93;;;;;;;0.21;100.00;96884.63;2585686;28;21006;-87
2023/12/01 01:59:00;;;;;;;46.53;16.73;;;;;;;0.31;100.00;96882.78;2584108;28;20107;-87
2023/12/01 02:00:16;;;;;;;44.15;16.85;;;;;;;0.18;100.00;96877.78;2583619;28;20050;-87
2023/12/01 02:01:39;;;;;;;47.38;16.08;;;;;;;0.32;100.00;96879.34;2584501;28;20069;-87
2023/12/01 02:02:55;;;;;;;49.72;17.60;;;;;;;0.41;100.00;96885.22;2585110;28;20322;-87
2023/12/01 02:04:10;;;;;;;46.13;16.15;;;;;;;0.44;100.00;96880.94;2583093;28;20054;-87
2023/12/01 02:05:26;;;;;;;47.55;16.83;;;;;;;0.43;100.00;96887.78;2585207;28;20050;-86
2023/12/01 02:06:42;;;;;;;44.53;16.02;;;;;;;0.46;100.00;96881.78;2583035;28;20046;-87
2023/12/01 02:08:19;;;;;;;45.10;16.05;;;;;;;0.49;100.00;96871.41;2584182;28;20092;-86
2023/12/01 02:09:35;;;;;;;42.65;15.60;;;;;;;0.50;100.00;96879.13;2583173;28;20076;-88
2023/12/01 02:10:55;;;;;;;46.67;16.80;;;;;;;0.54;100.00;96875.63;2582879;28;20702;-87
2023/12/01 02:12:10;;;;;;;42.70;16.80;;;;;;;0.52;100.00;96874.81;2585251;28;20057;-87
2023/12/01 02:13:28;;;;;;;54.92;17.83;;;;;;;0.53;100.00;96865.34;2585341;28;20432;-86
2023/12/01 02:14:43;;;;;;;43.22;15.77;;;;;;;0.55;100.00;96879.06;2584154;28;20046;-86
2023/12/01 02:16:01;;;;;;;49.10;17.30;;;;;;;0.43;100.00;96876.66;2583283;28;20120;-86
2023/12/01 02:17:17;;;;;;;44.35;16.83;;;;;;;0.33;100.00;96866.47;2586044;28;20504;-86
2023/12/01 02:18:33;;;;;;;51.00;17.73;;;;;;;0.10;100.00;96866.75;2584962;28;20068;-86
2023/12/01 02:19:51;;;;;;;51.72;18.33;;;;;;;0.23;100.00;96870.03;2582430;28;20054;-86
2023/12/01 02:21:07;;;;;;;50.50;17.02;;;;;;;0.01;100.00;96869.44;2583851;28;20132;-86
2023/12/01 02:22:22;;;;;;;52.83;19.80;;;;;;;-0.03;100.00;96864.31;2583995;28;20054;-86
2023/12/01 02:23:38;;;;;;;54.78;17.52;;;;;;;-0.25;100.00;96856.00;2584115;28;20050;-86
2023/12/01 02:24:53;;;;;;;54.40;17.75;;;;;;;-0.29;100.00;96852.59;2582477;28;20836;-88
2023/12/01 02:26:09;;;;;;;52.58;16.13;;;;;;;-0.36;100.00;96850.09;2583498;28;20051;-86
2023/12/01 02:27:25;;;;;;;57.97;19.77;;;;;;;-0.11;100.00;96847.28;2583996;28;20050;-86
2023/12/01 02:28:41;;;;;;;49.42;18.08;;;;;;;0.13;100.00;96848.69;2584494;28;20180;-86
2023/12/01 02:29:56;;;;;;;51.00;17.90;;;;;;;0.32;100.00;96846.75;2582442;28;20046;-86
2023/12/01 02:31:12;;;;;;;54.05;18.38;;;;;;;0.33;100.00;96845.00;2583856;28;20053;-86
2023/12/01 02:32:27;;;;;;;55.70;16.67;;;;;;;0.45;100.00;96847.44;2583155;28;20664;-87
2023/12/01 02:33:43;;;;;;;48.60;16.80;;;;;;;0.36;100.00;96860.44;2583510;28;20050;-87
2023/12/01 02:34:58;;;;;;;53.42;17.10;;;;;;;0.48;100.00;96864.56;2583575;28;20053;-86
2023/12/01 02:36:15;;;;;;;51.85;17.88;;;;;;;0.49;100.00;96874.00;2584489;28;20521;-86
2023/12/01 02:37:30;;;;;;;47.03;16.63;;;;;;;0.41;100.00;96884.41;2582218;28;20401;-86
2023/12/01 02:38:46;;;;;;;52.15;16.27;;;;;;;0.41;100.00;96885.22;2584093;28;20065;-86
2023/12/01 02:40:14;;;;;;;45.83;16.58;;;;;;;0.07;100.00;96875.34;2583150;28;20128;-86
2023/12/01 02:41:30;;;;;;;47.97;15.50;;;;;;;-0.04;100.00;96872.91;2583752;28;20046;-87
2023/12/01 02:42:50;;;;;;;51.22;17.13;;;;;;;0.13;100.00;96883.00;2585384;28;20099;-87
2023/12/01 02:44:06;;;;;;;49.70;16.52;;;;;;;0.38;100.00;96881.88;2584937;28;20077;-86
2023/12/01 02:45:22;;;;;;;52.58;17.65;;;;;;;0.47;100.00;96873.16;2583348;28;20448;-86
2023/12/01 02:46:37;;;;;;;44.05;16.92;;;;;;;0.45;100.00;96880.06;2584804;28;20050;-87
2023/12/01 02:47:53;;;;;;;42.60;14.73;;;;;;;-0.01;100.00;96872.88;2584795;28;20054;-87
2023/12/01 02:49:09;;;;;;;49.83;17.60;;;;;;;-0.15;100.00;96870.44;2584754;28;20050;-86
2023/12/01 02:50:24;;;;;;;46.65;17.67;;;;;;;0.16;100.00;96874.38;2585293;28;20050;-86
2023/12/01 02:51:40;;;;;;;53.55;18.08;;;;;;;-0.07;100.00;96879.81;2582172;28;20124;-86
2023/12/01 02:52:56;;;;;;;53.55;17.30;;;;;;;-0.28;100.00;96881.72;2585196;28;20404;-87
2023/12/01 02:54:11;;;;;;;48.30;16.15;;;;;;;-0.35;100.00;96880.94;2584957;28;20053;-86
2023/12/01 02:55:27;;;;;;;52.10;17.23;;;;;;;-0.23;100.00;96874.81;2582362;28;20072;-86
2023/12/01 02:56:43;;;;;;;48.50;16.70;;;;;;;-0.32;100.00;96874.91;2584441;28;20043;-86
2023/12/01 02:57:58;;;;;;;54.38;18.30;;;;;;;-0.19;100.00;96868.78;2582935;28;20045;-86
2023/12/01 02:59:14;;;;;;;54.13;17.75;;;;;;;-0.30;100.00;96879.19;2584534;28;20053;-86
2023/12/01 03:00:30;;;;;;;51.10;17.52;;;;;;;0.02;100.00;96863.41;2585880;28;20061;-86
2023/12/01 03:01:45;;;;;;;56.05;17.98;;;;;;;0.00;100.00;96863.44;2584578;28;20038;-86
2023/12/01 03:03:01;;;;;;;55.47;17.80;;;;;;;0.31;100.00;96863.06;2582756;28;20132;-86
2023/12/01 03:04:16;;;;;;;54.22;18.00;;;;;;;0.23;100.00;96868.31;2584928;28;20325;-86
2023/12/01 03:05:32;;;;;;;52.83;16.90;;;;;;;0.25;100.00;96863.13;2582400;28;20132;-86
2023/12/01 03:06:48;;;;;;;50.42;16.95;;;;;;;0.04;100.00;96859.97;2584115;28;20045;-86
2023/12/01 03:08:03;;;;;;;60.47;17.80;;;;;;;-0.21;100.00;96865.38;2582248;28;20521;-86
2023/12/01 03:09:19;;;;;;;49.50;17.98;;;;;;;-0.02;100.00;96880.59;2583020;28;20076;-86
2023/12/01 03:10:35;;;;;;;47.80;18.00;;;;;;;0.15;100.00;96887.28;2583914;28;20077;-86
2023/12/01 03:11:51;;;;;;;55.40;18.63;;;;;;;0.27;100.00;96889.69;2583062;28;20053;-87
2023/12/01 03:13:06;;;;;;;49.58;17.95;;;;;;;0.35;100.00;96905.91;2585248;28;20061;-87
2023/12/01 03:14:22;;;;;;;53.22;18.52;;;;;;;0.16;100.00;96894.16;2584752;28;20042;-86
2023/12/01 03:15:40;;;;;;;61.05;18.30;;;;;;;-0.04;100.00;96885.78;2583959;28;20053;-86
2023/12/01 03:16:56;;;;;;;51.80;17.67;;;;;;;-0.11;100.00;96875.56;2582993;28;20045;-85
2023/12/01 03:18:12;;;;;;;55.65;17.77;;;;;;;-0.13;100.00;96869.59;2583639;28;20519;-86
2023/12/01 03:19:27;;;;;;;54.88;18.50;;;;;;;0.16;100.00;96873.56;2583807;28;20057;-86
2023/12/01 03:20:43;;;;;;;54.25;17.85;;;;;;;0.33;100.00;96875.91;2582575;28;20057;-86
2023/12/01 03:21:58;;;;;;;56.00;18.67;;;;;;;0.21;100.00;96887.22;2582957;28;20050;-86
2023/12/01 03:23:14;;;;;;;52.05;18.95;;;;;;;0.32;100.00;96890.50;2585118;28;20046;-87
2023/12/01 03:24:29;;;;;;;52.13;18.58;;;;;;;0.37;100.00;96898.19;2583729;28;20057;-86
2023/12/01 03:25:45;;;;;;;50.47;18.48;;;;;;;0.20;100.00;96900.94;2582135;28;20045;-86
2023/12/01 03:27:01;;;;;;;52.60;18.17;;;;;;;0.24;100.00;96910.34;2583215;28;20057;-86
2023/12/01 03:28:16;;;;;;;55.20;18.17;;;;;;;0.18;100.00;96911.25;2583758;28;20050;-86
2023/12/01 03:29:33;;;;;;;58.47;19.80;;;;;;;0.34;100.00;96914.50;2583338;28;20046;-86
2023/12/01 03:30:48;;;;;;;55.05;19.30;;;;;;;0.13;100.00;96908.72;2581640;28;20133;-86
2023/12/01 03:32:04;;;;;;;60.20;19.63;;;;;;;0.05;100.00;96912.25;2582755;28;20060;-86
2023/12/01 03:33:20;;;;;;;64.72;19.58;;;;;;;-0.13;100.00;96900.47;2582641;28;20092;-86
2023/12/01 03:34:35;;;;;;;67.35;20.42;;;;;;;0.08;100.00;96897.63;2582235;28;20053;-86
2023/12/01 03:35:50;;;;;;;66.05;20.13;;;;;;;-0.03;100.00;96884.03;2582107;28;20042;-86
2023/12/01 03:37:06;;;;;;;67.53;20.25;;;;;;;-0.13;100.00;96882.47;2583932;28;20077;-86
2023/12/01 03:38:22;;;;;;;68.60;20.05;;;;;;;0.07;100.00;96890.78;2584727;28;20057;-86
2023/12/01 03:39:37;;;;;;;60.53;19.98;;;;;;;-0.20;100.00;96905.66;2583419;28;20049;-86
2023/12/01 03:40:53;;;;;;;73.65;19.90;;;;;;;-0.09;100.00;96912.41;2584248;28;20095;-90
2023/12/01 03:42:09;;;;;;;74.70;21.08;;;;;;;-0.02;100.00;96908.91;2583253;28;20052;-86
2023/12/01 03:43:25;;;;;;;64.05;20.40;;;;;;;-0.34;100.00;96910.06;2582002;28;20050;-86
2023/12/01 03:44:40;;;;;;;67.25;21.05;;;;;;;-0.40;100.00;96910.97;2583875;28;20053;-87
2023/12/01 03:45:56;;;;;;;67.18;20.98;;;;;;;-0.37;100.00;96912.69;2582998;28;20054;-86
2023/12/01 03:47:11;;;;;;;61.75;20.45;;;;;;;-0.15;100.00;96914.16;2572575;28;20055;-86
2023/12/01 03:48:27;;;;;;;60.90;19.17;;;;;;;-0.46;100.00;96908.47;2577698;28;20050;-86
2023/12/01 03:49:42;;;;;;;65.25;21.48;;;;;;;-0.37;100.00;96908.38;2584212;28;20050;-86
2023/12/01 03:50:59;;;;;;;76.75;20.42;;;;;;;-0.37;100.00;96904.97;2583149;28;20046;-86
2023/12/01 03:52:15;;;;;;;63.33;17.77;;;;;;;-0.43;100.00;96900.72;2583493;28;20072;-86
2023/12/01 03:53:31;;;;;;;75.75;21.35;;;;;;;-0.36;100.00;96904.09;2583587;28;20050;-86
2023/12/01 03:54:46;;;;;;;69.00;19.33;;;;;;;-0.24;100.00;96896.28;2583878;28;20062;-86
2023/12/01 03:56:03;;;;;;;66.03;20.80;;;;;;;-0.37;100.00;96894.69;2584833;28;20109;-86
2023/12/01 03:57:18;;;;;;;68.38;21.08;;;;;;;-0.21;100.00;96891.09;2583505;28;20104;-86
2023/12/01 03:58:34;;;;;;;70.03;21.23;;;;;;;-0.20;100.00;96892.78;2584599;28;20057;-86
2023/12/01 03:59:49;;;;;;;59.25;18.02;;;;;;;-0.27;100.00;96893.72;2583936;28;20050;-86
2023/12/01 04:01:05;;;;;;;62.45;19.55;;;;;;;-0.31;100.00;96889.47;2583224;28;20046;-86
2023/12/01 04:02:21;;;;;;;62.80;19.60;;;;;;;-0.34;100.00;96889.50;2583108;28;20494;-86
2023/12/01 04:03:37;;;;;;;61.58;19.85;;;;;;;0.05;100.00;96892.53;2582471;28;20486;-87
2023/12/01 04:04:52;;;;;;;65.68;19.83;;;;;;;0.24;100.00;96893.19;2572784;28;20051;-86
2023/12/01 04:06:08;;;;;;;67.28;19.85;;;;;;;0.31;100.00;96905.97;2577519;28;20507;-86
2023/12/01 04:07:24;;;;;;;66.85;19.05;;;;;;;0.16;100.00;96902.69;2584119;28;20521;-86
2023/12/01 04:08:39;;;;;;;66.95;21.13;;;;;;;0.16;100.00;96901.88;2582904;28;20072;-86
2023/12/01 04:09:55;;;;;;;66.97;19.48;;;;;;;0.23;100.00;96908.63;2584140;28;20516;-86
2023/12/01 04:11:11;;;;;;;54.85;19.80;;;;;;;-0.01;100.00;96906.31;2582757;28;20061;-87
2023/12/01 04:12:30;;;;;;;61.50;19.48;;;;;;;0.02;100.00;96896.84;2582669;28;20584;-86
2023/12/01 04:13:46;;;;;;;66.28;19.23;;;;;;;-0.12;100.00;96895.28;2581691;28;20049;-86
2023/12/01 04:15:01;;;;;;;60.90;20.73;;;;;;;-0.02;100.00;96896.91;2571610;28;20054;-87
2023/12/01 04:16:17;;;;;;;63.47;19.90;;;;;;;-0.18;100.00;96896.19;2576705;28;20049;-86
2023/12/01 04:17:34;;;;;;;59.75;20.30;;;;;;;-0.09;100.00;96902.97;2584843;28;20089;-86
2023/12/01 04:18:49;;;;;;;63.78;19.50;;;;;;;0.04;100.00;96902.84;2584229;28;20486;-87
2023/12/01 04:20:20;;;;;;;60.63;19.02;;;;;;;-0.01;100.00;96902.88;2581610;28;20050;-86
2023/12/01 04:21:36;;;;;;;58.88;17.17;;;;;;;0.04;100.00;96900.25;2584511;28;20100;-87
2023/12/01 04:22:54;;;;;;;67.85;20.60;;;;;;;0.03;100.00;96898.56;2583264;28;20104;-85
2023/12/01 04:24:09;;;;;;;66.68;21.63;;;;;;;0.24;100.00;96898.34;2584565;28;20081;-86
2023/12/01 04:25:26;;;;;;;58.63;20.48;;;;;;;0.26;100.00;96906.00;2584244;28;20137;-86
2023/12/01 04:26:41;;;;;;;61.78;19.05;;;;;;;0.36;100.00;96910.19;2583402;28;20050;-86
2023/12/01 04:27:58;;;;;;;63.13;20.98;;;;;;;0.06;100.00;96911.38;2581707;28;20608;-86
2023/12/01 04:29:14;;;;;;;72.88;22.17;;;;;;;-0.15;100.00;96905.63;2583477;28;20434;-86
2023/12/01 04:30:30;;;;;;;73.70;22.85;;;;;;;-0.25;100.00;96907.44;2581887;28;20054;-86
2023/12/01 04:31:46;;;;;;;68.13;19.75;;;;;;;-0.06;100.00;96915.81;2584040;28;20086;-86
2023/12/01 04:33:02;;;;;;;68.32;20.98;;;;;;;0.08;100.00;96915.66;2583527;28;20564;-85
2023/12/01 04:34:20;;;;;;;67.72;20.75;;;;;;;0.07;100.00;96907.94;2582208;28;20042;-85
2023/12/01 04:35:36;;;;;;;69.63;20.27;;;;;;;0.25;100.00;96899.16;2582854;28;20058;-85
2023/12/01 04:36:55;;;;;;;67.45;20.10;;;;;;;0.32;100.00;96895.66;2583549;28;20053;-87
2023/12/01 04:38:10;;;;;;;62.65;20.48;;;;;;;-0.04;100.00;96897.78;2581987;28;20809;-87
2023/12/01 04:39:26;;;;;;;63.03;19.92;;;;;;;0.16;100.00;96889.84;2583592;28;20053;-86
2023/12/01 04:40:42;;;;;;;66.47;19.30;;;;;;;0.02;100.00;96902.88;2583981;28;20117;-85
2023/12/01 04:41:57;;;;;;;61.40;19.45;;;;;;;-0.18;100.00;96905.66;2582601;28;20050;-86
2023/12/01 04:43:14;;;;;;;60.38;18.50;;;;;;;-0.18;100.00;96909.06;2581160;28;20066;-86
2023/12/01 04:44:30;;;;;;;74.63;20.83;;;;;;;-0.05;100.00;96906.38;2581994;28;20086;-86
2023/12/01 04:45:45;;;;;;;68.65;20.48;;;;;;;-0.31;100.00;96900.63;2582494;28;20552;-86
2023/12/01 04:47:01;;;;;;;69.40;21.50;;;;;;;-0.11;100.00;96893.56;2582835;28;20049;-86
2023/12/01 04:48:16;;;;;;;71.75;20.10;;;;;;;-0.05;100.00;96889.22;2582457;28;20450;-87
2023/12/01 04:49:32;;;;;;;69.78;21.70;;;;;;;-0.23;100.00;96892.81;2584464;28;20053;-86
2023/12/01 04:50:48;;;;;;;70.65;22.02;;;;;;;0.06;100.00;96894.25;2584376;28;20061;-85
2023/12/01 04:52:04;;;;;;;62.42;18.50;;;;;;;-0.06;100.00;96887.50;2585610;28;20060;-85
2023/12/01 04:53:20;;;;;;;75.68;21.83;;;;;;;0.03;100.00;96876.28;2584405;28;20070;-87
2023/12/01 04:54:36;;;;;;;63.58;19.75;;;;;;;-0.11;100.00;96888.44;2585653;28;20113;-86
2023/12/01 04:55:51;;;;;;;63.80;20.98;;;;;;;-0.13;100.00;96885.88;2586366;28;20109;-85
2023/12/01 04:57:07;;;;;;;67.15;19.45;;;;;;;-0.18;100.00;96885.91;2584928;28;20096;-86
2023/12/01 04:58:22;;;;;;;64.72;20.27;;;;;;;-0.20;100.00;96885.06;2585900;28;20077;-85
2023/12/01 04:59:38;;;;;;;65.53;20.08;;;;;;;-0.17;100.00;96879.88;2585571;28;20050;-86
2023/12/01 05:00:53;;;;;;;66.32;19.95;;;;;;;0.02;100.00;96879.72;2585591;28;20042;-86
2023/12/01 05:02:09;;;;;;;69.20;20.52;;;;;;;-0.07;100.00;96878.09;2585196;28;21094;-86
2023/12/01 05:03:26;;;;;;;63.28;19.77;;;;;;;-0.16;100.00;96879.03;2582794;28;20047;-86
2023/12/01 05:04:42;;;;;;;61.40;20.50;;;;;;;-0.07;100.00;96884.94;2583143;28;20109;-85
2023/12/01 05:05:58;;;;;;;59.50;18.00;;;;;;;-0.13;100.00;96882.47;2584151;28;20046;-87
2023/12/01 05:07:13;;;;;;;63.42;20.70;;;;;;;-0.04;100.00;96885.78;2584576;28;20081;-87
2023/12/01 05:08:29;;;;;;;58.40;18.25;;;;;;;-0.01;100.00;96879.72;2586764;28;20053;-86
2023/12/01 05:09:45;;;;;;;55.58;18.90;;;;;;;-0.09;100.00;96879.81;2585219;28;20540;-86
2023/12/01 05:11:04;;;;;;;55.90;18.48;;;;;;;-0.11;100.00;96891.00;2583838;28;20093;-86
2023/12/01 05:12:20;;;;;;;55.33;18.23;;;;;;;0.02;100.00;96894.28;2584562;28;20046;-87
2023/12/01 05:13:35;;;;;;;49.38;16.58;;;;;;;-0.10;100.00;96896.13;2584717;28;20050;-87
2023/12/01 05:14:51;;;;;;;56.95;17.90;;;;;;;0.15;100.00;96887.28;2584846;28;20226;-86
2023/12/01 05:16:06;;;;;;;48.33;17.33;;;;;;;-0.08;100.00;96885.81;2584459;28;20050;-86
2023/12/01 05:17:22;;;;;;;50.47;16.63;;;;;;;-0.05;100.00;96883.22;2584986;28;20050;-86
2023/12/01 05:18:37;;;;;;;55.25;16.83;;;;;;;-0.06;100.00;96886.66;2582461;28;20093;-86
2023/12/01 05:19:53;;;;;;;56.47;17.85;;;;;;;0.11;100.00;96879.59;2584735;28;20370;-86
2023/12/01 05:21:09;;;;;;;57.67;16.90;;;;;;;0.07;100.00;96877.94;2586312;28;20050;-86
2023/12/01 05:22:24;;;;;;;57.13;18.58;;;;;;;0.05;100.00;96874.53;2585093;28;20054;-87
2023/12/01 05:23:40;;;;;;;52.88;18.88;;;;;;;0.02;100.00;96881.41;2585877;28;20112;-86
2023/12/01 05:24:57;;;;;;;62.65;18.15;;;;;;;0.09;100.00;96881.34;2584542;28;20042;-86
2023/12/01 05:26:12;;;;;;;62.38;20.27;;;;;;;-0.12;100.00;96889.31;2585218;28;20442;-86
2023/12/01 05:27:28;;;;;;;58.25;18.05;;;;;;;-0.20;100.00;96890.22;2585040;28;20420;-87
2023/12/01 05:28:43;;;;;;;51.33;17.95;;;;;;;-0.10;100.00;96890.97;2583486;28;20054;-86
2023/12/01 05:29:59;;;;;;;56.33;19.38;;;;;;;-0.05;100.00;96889.22;2584135;28;20497;-86
2023/12/01 05:31:16;;;;;;;62.45;18.85;;;;;;;-0.12;100.00;96895.28;2574672;28;20046;-86
2023/12/01 05:32:32;;;;;;;63.10;18.23;;;;;;;-0.08;100.00;96899.53;2579614;28;20081;-86
2023/12/01 05:33:48;;;;;;;53.95;16.70;;;;;;;-0.20;100.00;96892.78;2584940;28;20418;-86
2023/12/01 05:35:05;;;;;;;51.72;17.42;;;;;;;-0.17;100.00;96887.59;2584777;28;20117;-86
2023/12/01 05:36:20;;;;;;;56.78;18.08;;;;;;;-0.18;100.00;96890.22;2585126;28;20296;-86
2023/12/01 05:37:38;;;;;;;60.40;18.70;;;;;;;0.10;100.00;96898.47;2584763;28;20053;-86
2023/12/01 05:38:53;;;;;;;52.75;16.85;;;;;;;-0.26;100.00;96894.56;2583882;28;20078;-85
2023/12/01 05:40:14;;;;;;;61.88;18.67;;;;;;;-0.20;100.00;96900.50;2584587;28;20177;-85
2023/12/01 05:41:30;;;;;;;51.53;17.17;;;;;;;-0.21;100.00;96892.78;2583798;28;20050;-85
2023/12/01 05:42:45;;;;;;;57.95;18.70;;;;;;;-0.08;100.00;96901.25;2586061;28;20058;-85
2023/12/01 05:44:02;;;;;;;52.88;17.88;;;;;;;-0.17;100.00;96897.91;2584095;28;20422;-84
2023/12/01 05:45:18;;;;;;;54.75;17.42;;;;;;;-0.06;100.00;96897.81;2583090;28;20364;-85
2023/12/01 05:46:34;;;;;;;60.25;17.50;;;;;;;-0.21;100.00;96897.94;2584714;28;20050;-86
2023/12/01 05:47:52;;;;;;;57.42;18.00;;;;;;;-0.17;100.00;96897.91;2584758;28;20435;-85